createdAt,value
2023-12-19T00:01:03.423Z,75.01
2023-12-19T00:03:30.299Z,75.25
2023-12-19T00:05:57.259Z,75.43
2023-12-19T00:08:24.048Z,75.39
2023-12-19T00:10:51.032Z,75.37
2023-12-19T00:13:17.852Z,75.82
2023-12-19T00:15:44.823Z,75.78
2023-12-19T00:18:12.116Z,75.75
2023-12-19T00:20:38.821Z,75.63
2023-12-19T00:23:06.380Z,75.88
2023-12-19T00:25:33.222Z,75.98
2023-12-19T00:28:03.026Z,75.82
2023-12-19T00:30:29.704Z,75.92
2023-12-19T00:32:57.000Z,75.88
2023-12-19T00:35:24.233Z,76.03
2023-12-19T00:37:51.038Z,76.20
2023-12-19T00:40:18.294Z,76.16
2023-12-19T00:42:45.332Z,76.22
2023-12-19T00:45:12.617Z,76.36
2023-12-19T00:47:40.775Z,76.38
2023-12-19T00:50:10.589Z,76.58
2023-12-19T00:52:37.396Z,76.92
2023-12-19T00:55:05.061Z,76.70
2023-12-19T00:57:32.937Z,76.95
2023-12-19T00:59:59.736Z,76.39
2023-12-19T01:02:28.818Z,76.55
2023-12-19T01:04:58.976Z,76.48
2023-12-19T01:07:25.817Z,76.38
2023-12-19T01:09:53.103Z,76.31
2023-12-19T01:12:20.204Z,76.11
2023-12-19T01:14:47.022Z,76.12
2023-12-19T01:17:13.788Z,75.87
2023-12-19T01:19:40.602Z,76.30
2023-12-19T01:22:07.453Z,75.72
2023-12-19T01:24:35.950Z,75.77
2023-12-19T01:27:03.294Z,75.64
2023-12-19T01:29:30.567Z,75.68
2023-12-19T01:31:57.418Z,75.74
2023-12-19T01:34:24.382Z,75.76
2023-12-19T01:36:57.067Z,75.66
2023-12-19T01:39:25.775Z,75.95
2023-12-19T01:41:52.995Z,76.01
2023-12-19T01:44:20.639Z,75.51
2023-12-19T01:46:48.228Z,75.64
2023-12-19T01:49:15.948Z,75.89
2023-12-19T01:51:43.489Z,75.70
2023-12-19T01:54:12.417Z,75.98
2023-12-19T01:56:40.163Z,75.75
2023-12-19T01:59:08.074Z,76.53
2023-12-19T02:01:38.981Z,76.83
2023-12-19T02:04:06.446Z,76.69
2023-12-19T02:06:36.304Z,76.85
2023-12-19T02:09:03.901Z,77.08
2023-12-19T02:11:30.971Z,77.23
2023-12-19T02:13:59.924Z,77.07
2023-12-19T02:16:30.740Z,77.09
2023-12-19T02:19:05.422Z,76.89
2023-12-19T02:21:32.880Z,76.98
2023-12-19T02:24:00.349Z,76.94
2023-12-19T02:26:28.416Z,76.61
2023-12-19T02:28:55.635Z,77.01
2023-12-19T02:31:22.601Z,76.79
2023-12-19T02:33:49.839Z,76.53
2023-12-19T02:36:18.247Z,76.26
2023-12-19T02:38:45.518Z,76.19
2023-12-19T02:41:12.378Z,76.22
2023-12-19T02:43:53.312Z,75.76
2023-12-19T02:46:22.726Z,75.76
2023-12-19T02:48:49.825Z,75.47
2023-12-19T02:51:20.166Z,75.79
2023-12-19T02:53:47.690Z,75.51
2023-12-19T02:56:14.539Z,75.78
2023-12-19T02:58:42.390Z,75.83
2023-12-19T03:01:10.031Z,75.79
2023-12-19T03:03:37.346Z,75.62
2023-12-19T03:06:04.647Z,75.25
2023-12-19T03:08:31.540Z,75.27
2023-12-19T03:10:59.963Z,75.53
2023-12-19T03:13:27.065Z,75.52
2023-12-19T03:15:53.854Z,75.21
2023-12-19T03:18:26.966Z,75.42
2023-12-19T03:20:54.155Z,75.50
2023-12-19T03:23:22.296Z,75.86
2023-12-19T03:25:49.641Z,75.52
2023-12-19T03:28:16.933Z,75.50
2023-12-19T03:30:44.026Z,75.48
2023-12-19T03:33:11.143Z,75.33
2023-12-19T03:35:38.213Z,75.90
2023-12-19T03:38:04.979Z,75.74
2023-12-19T03:40:31.890Z,75.59
2023-12-19T03:42:58.667Z,75.33
2023-12-19T03:45:25.578Z,75.94
2023-12-19T03:47:52.975Z,75.64
2023-12-19T03:50:19.792Z,75.57
2023-12-19T03:52:46.780Z,75.42
2023-12-19T03:55:33.682Z,75.32
2023-12-19T03:58:00.849Z,75.57
2023-12-19T04:00:27.849Z,75.84
2023-12-19T04:02:54.715Z,75.46
2023-12-19T04:05:21.745Z,75.80
2023-12-19T04:07:48.560Z,75.79
2023-12-19T04:10:15.637Z,76.11
2023-12-19T04:12:42.517Z,76.02
2023-12-19T04:15:10.267Z,76.12
2023-12-19T04:17:37.280Z,76.63
2023-12-19T04:20:04.828Z,76.68
2023-12-19T04:22:33.048Z,76.85
2023-12-19T04:25:00.365Z,76.64
2023-12-19T04:27:27.427Z,76.55
2023-12-19T04:29:57.088Z,76.86
2023-12-19T04:32:25.211Z,77.09
2023-12-19T04:34:52.055Z,77.18
2023-12-19T04:37:18.809Z,77.19
2023-12-19T04:39:46.151Z,77.25
2023-12-19T04:42:18.701Z,76.99
2023-12-19T04:44:47.870Z,77.37
2023-12-19T04:47:14.742Z,77.61
2023-12-19T04:49:41.982Z,77.23
2023-12-19T04:52:09.352Z,77.46
2023-12-19T04:54:36.202Z,77.36
2023-12-19T04:57:03.153Z,77.33
2023-12-19T04:59:30.184Z,77.51
2023-12-19T05:01:57.195Z,77.85
2023-12-19T05:04:23.987Z,77.38
2023-12-19T05:06:51.064Z,77.77
2023-12-19T05:09:20.088Z,77.67
2023-12-19T05:11:46.847Z,78.01
2023-12-19T05:14:13.609Z,78.01
2023-12-19T05:16:40.388Z,77.90
2023-12-19T05:19:07.267Z,77.78
2023-12-19T05:21:40.740Z,77.85
2023-12-19T05:24:10.401Z,77.77
2023-12-19T05:26:37.450Z,77.83
2023-12-19T05:29:05.599Z,77.69
2023-12-19T05:31:32.572Z,77.89
2023-12-19T05:33:59.504Z,77.58
2023-12-19T05:36:26.525Z,77.41
2023-12-19T05:38:53.272Z,77.54
2023-12-19T05:41:20.208Z,77.34
2023-12-19T05:43:47.260Z,77.62
2023-12-19T05:46:15.451Z,77.35
2023-12-19T05:48:42.375Z,77.40
2023-12-19T05:51:09.643Z,77.87
2023-12-19T05:53:38.769Z,77.75
2023-12-19T05:56:06.783Z,77.82
2023-12-19T05:58:34.356Z,77.87
2023-12-19T06:01:02.158Z,77.25
2023-12-19T06:03:29.122Z,77.84
2023-12-19T06:05:56.494Z,77.81
2023-12-19T06:08:24.182Z,77.79
2023-12-19T06:11:20.872Z,77.48
2023-12-19T06:13:47.860Z,77.56
2023-12-19T06:16:37.105Z,77.49
2023-12-19T06:19:05.874Z,77.52
2023-12-19T06:21:34.269Z,77.35
2023-12-19T06:24:01.141Z,77.48
2023-12-19T06:26:27.933Z,77.36
2023-12-19T06:28:54.689Z,77.58
2023-12-19T06:31:21.605Z,77.67
2023-12-19T06:33:48.620Z,77.92
2023-12-19T06:36:30.425Z,77.40
2023-12-19T06:38:57.160Z,77.06
2023-12-19T06:41:23.989Z,77.08
2023-12-19T06:43:50.974Z,77.05
2023-12-19T06:46:18.966Z,77.41
2023-12-19T06:48:46.375Z,77.20
2023-12-19T06:51:28.274Z,76.89
2023-12-19T06:53:58.994Z,77.09
2023-12-19T06:56:30.373Z,77.03
2023-12-19T06:58:57.416Z,76.96
2023-12-19T07:01:26.700Z,76.60
2023-12-19T07:03:53.952Z,76.53
2023-12-19T07:06:20.812Z,76.36
2023-12-19T07:08:49.186Z,76.13
2023-12-19T07:11:18.302Z,75.74
2023-12-19T07:13:45.626Z,75.84
2023-12-19T07:16:17.944Z,75.58
2023-12-19T07:18:48.321Z,75.47
2023-12-19T07:21:22.960Z,75.23
2023-12-19T07:23:54.684Z,74.97
2023-12-19T07:26:21.913Z,75.09
2023-12-19T07:28:48.755Z,74.87
2023-12-19T07:31:26.706Z,74.75
2023-12-19T07:33:59.406Z,74.50
2023-12-19T07:36:27.513Z,74.29
2023-12-19T07:38:55.349Z,74.17
2023-12-19T07:41:24.443Z,73.42
2023-12-19T07:43:51.515Z,73.77
2023-12-19T07:46:18.610Z,72.76
2023-12-19T07:48:45.916Z,73.00
2023-12-19T07:51:27.817Z,72.73
2023-12-19T07:53:58.873Z,72.96
2023-12-19T07:56:25.885Z,72.41
2023-12-19T07:58:53.680Z,72.76
2023-12-19T08:01:21.448Z,72.70
2023-12-19T08:03:48.961Z,72.38
2023-12-19T08:06:16.674Z,72.08
2023-12-19T08:08:43.844Z,71.88
2023-12-19T08:11:10.986Z,71.51
2023-12-19T08:13:37.742Z,71.85
2023-12-19T08:16:06.981Z,71.29
2023-12-19T08:18:34.610Z,71.11
2023-12-19T08:21:04.886Z,70.98
2023-12-19T08:23:32.242Z,70.68
2023-12-19T08:25:59.260Z,70.37
2023-12-19T08:28:26.213Z,69.99
2023-12-19T08:30:53.291Z,69.55
2023-12-19T08:33:21.779Z,69.27
2023-12-19T08:35:49.868Z,68.58
2023-12-19T08:38:17.015Z,68.27
2023-12-19T08:40:43.987Z,67.85
2023-12-19T08:43:11.036Z,67.53
2023-12-19T08:45:38.444Z,67.11
2023-12-19T08:48:06.521Z,66.91
2023-12-19T08:50:33.714Z,66.64
2023-12-19T08:53:01.373Z,66.08
2023-12-19T08:55:28.516Z,66.09
2023-12-19T08:57:55.642Z,65.82
2023-12-19T09:00:23.948Z,65.63
2023-12-19T09:02:50.939Z,65.43
2023-12-19T09:05:19.653Z,65.32
2023-12-19T09:07:51.308Z,65.28
2023-12-19T09:10:19.128Z,64.92
2023-12-19T09:12:46.503Z,64.52
2023-12-19T09:15:14.047Z,64.20
2023-12-19T09:17:41.196Z,64.35
2023-12-19T09:20:09.815Z,63.89
2023-12-19T09:22:37.373Z,63.76
2023-12-19T09:25:04.887Z,63.57
2023-12-19T09:27:33.234Z,63.45
2023-12-19T09:30:00.238Z,63.32
2023-12-19T09:32:27.277Z,63.06
2023-12-19T09:34:55.211Z,62.89
2023-12-19T09:37:25.133Z,63.03
2023-12-19T09:39:54.129Z,62.69
2023-12-19T09:42:22.219Z,62.75
2023-12-19T09:44:49.607Z,62.54
2023-12-19T09:47:25.513Z,62.26
2023-12-19T09:50:01.636Z,61.73
2023-12-19T09:52:29.568Z,61.29
2023-12-19T09:54:56.631Z,60.73
2023-12-19T09:57:25.835Z,60.13
2023-12-19T09:59:57.176Z,59.65
2023-12-19T10:02:26.852Z,59.39
2023-12-19T10:04:54.699Z,58.95
2023-12-19T10:07:22.105Z,58.79
2023-12-19T10:09:59.008Z,58.80
2023-12-19T10:12:34.418Z,58.38
2023-12-19T10:15:15.791Z,57.88
2023-12-19T10:18:13.288Z,57.85
2023-12-19T10:20:42.380Z,58.18
2023-12-19T10:23:10.708Z,57.90
2023-12-19T10:25:45.554Z,57.71
2023-12-19T10:28:15.961Z,57.43
2023-12-19T10:30:47.274Z,57.19
2023-12-19T10:33:17.779Z,57.25
2023-12-19T10:35:46.734Z,56.71
2023-12-19T10:38:14.286Z,56.72
2023-12-19T10:40:41.452Z,56.44
2023-12-19T10:43:08.578Z,56.61
2023-12-19T10:45:36.348Z,56.54
2023-12-19T10:48:03.232Z,56.56
2023-12-19T10:50:31.378Z,56.46
2023-12-19T10:53:06.834Z,56.31
2023-12-19T10:55:47.770Z,56.18
2023-12-19T10:58:21.730Z,56.06
2023-12-19T11:00:52.394Z,55.85
2023-12-19T11:03:24.710Z,55.89
2023-12-19T11:05:55.603Z,55.96
2023-12-19T11:08:25.853Z,55.67
2023-12-19T11:11:00.451Z,55.90
2023-12-19T11:13:28.910Z,55.68
2023-12-19T11:16:18.685Z,55.12
2023-12-19T11:18:57.301Z,54.89
2023-12-19T11:21:43.436Z,55.02
2023-12-19T11:24:19.637Z,54.72
2023-12-19T11:27:19.658Z,54.19
2023-12-19T11:29:55.304Z,53.79
2023-12-19T11:32:28.098Z,53.55
2023-12-19T11:34:56.933Z,53.46
2023-12-19T11:37:26.318Z,53.27
2023-12-19T11:39:54.756Z,52.89
2023-12-19T11:42:41.964Z,52.05
2023-12-19T11:45:18.070Z,51.96
2023-12-19T11:47:47.252Z,51.87
2023-12-19T11:50:40.920Z,51.57
2023-12-19T11:53:08.703Z,51.63
2023-12-19T11:55:36.176Z,51.61
2023-12-19T11:58:14.100Z,51.28
2023-12-19T12:00:44.786Z,51.15
2023-12-19T12:03:13.802Z,51.10
2023-12-19T12:05:41.532Z,50.87
2023-12-19T12:08:14.623Z,50.16
2023-12-19T12:10:42.121Z,50.22
2023-12-19T12:13:09.486Z,50.15
2023-12-19T12:15:36.505Z,49.93
2023-12-19T12:18:07.965Z,50.26
2023-12-19T12:20:36.691Z,50.00
2023-12-19T12:23:04.952Z,49.96
2023-12-19T12:25:35.058Z,49.57
2023-12-19T12:28:09.068Z,49.66
2023-12-19T12:30:37.408Z,49.48
2023-12-19T12:33:09.305Z,49.51
2023-12-19T12:35:38.694Z,49.64
2023-12-19T12:38:20.796Z,49.68
2023-12-19T12:41:03.251Z,49.57
2023-12-19T12:43:35.792Z,49.28
2023-12-19T12:46:14.334Z,49.17
2023-12-19T12:48:57.519Z,49.25
2023-12-19T12:51:25.002Z,49.30
2023-12-19T12:54:04.261Z,49.17
2023-12-19T12:56:36.524Z,49.30
2023-12-19T12:59:08.084Z,49.34
2023-12-19T13:01:36.534Z,49.55
2023-12-19T13:04:08.318Z,49.32
2023-12-19T13:06:44.021Z,49.18
2023-12-19T13:09:16.498Z,48.92
2023-12-19T13:11:55.317Z,49.12
2023-12-19T13:14:23.781Z,49.12
2023-12-19T13:16:50.891Z,49.22
2023-12-19T13:19:19.980Z,49.12
2023-12-19T13:21:47.836Z,49.09
2023-12-19T13:24:16.229Z,48.98
2023-12-19T13:26:43.187Z,49.02
2023-12-19T13:29:10.591Z,48.83
2023-12-19T13:31:39.238Z,48.77
2023-12-19T13:34:06.628Z,48.87
2023-12-19T13:36:33.804Z,48.97
2023-12-19T13:39:00.832Z,48.77
2023-12-19T13:41:28.881Z,48.84
2023-12-19T13:43:56.856Z,48.91
2023-12-19T13:46:25.380Z,48.68
2023-12-19T13:48:53.767Z,48.78
2023-12-19T13:51:22.037Z,48.83
2023-12-19T13:53:49.061Z,48.82
2023-12-19T13:56:16.658Z,48.70
2023-12-19T13:58:43.656Z,48.42
2023-12-19T14:01:10.752Z,48.20
2023-12-19T14:03:40.358Z,48.31
2023-12-19T14:06:07.331Z,48.01
2023-12-19T14:08:43.816Z,47.97
2023-12-19T14:11:10.784Z,47.78
2023-12-19T14:13:39.165Z,47.62
2023-12-19T14:16:06.676Z,47.66
2023-12-19T14:18:33.929Z,47.64
2023-12-19T14:21:01.866Z,47.83
2023-12-19T14:23:29.083Z,48.01
2023-12-19T14:25:56.008Z,47.98
2023-12-19T14:28:23.079Z,47.84
2023-12-19T14:30:50.410Z,47.87
2023-12-19T14:33:17.471Z,48.07
2023-12-19T14:35:44.602Z,48.28
2023-12-19T14:38:11.772Z,48.08
2023-12-19T14:40:38.760Z,48.26
2023-12-19T14:43:07.236Z,48.32
2023-12-19T14:45:34.296Z,48.42
2023-12-19T14:48:02.571Z,48.33
2023-12-19T14:50:29.896Z,48.19
2023-12-19T14:52:57.029Z,48.13
2023-12-19T14:55:23.941Z,48.23
2023-12-19T14:57:50.929Z,48.08
2023-12-19T15:00:18.496Z,48.16
2023-12-19T15:02:48.616Z,48.24
2023-12-19T15:05:15.521Z,48.24
2023-12-19T15:07:43.524Z,48.18
2023-12-19T15:10:11.093Z,48.00
2023-12-19T15:12:39.391Z,48.20
2023-12-19T15:15:07.819Z,48.27
2023-12-19T15:17:35.110Z,47.90
2023-12-19T15:20:02.845Z,47.92
2023-12-19T15:22:30.095Z,47.90
2023-12-19T15:28:08.233Z,48.17
2023-12-19T15:30:41.956Z,48.05
2023-12-19T15:33:09.484Z,47.75
2023-12-19T15:35:36.477Z,47.70
2023-12-19T15:38:03.828Z,47.53
2023-12-19T15:40:30.823Z,47.45
2023-12-19T15:42:57.855Z,47.32
2023-12-19T15:45:24.831Z,47.37
2023-12-19T15:47:52.220Z,47.35
2023-12-19T15:50:19.268Z,47.24
2023-12-19T15:52:46.183Z,47.32
2023-12-19T15:55:13.445Z,47.33
2023-12-19T15:57:41.624Z,47.42
2023-12-19T16:00:10.053Z,47.44
2023-12-19T16:02:45.625Z,47.32
2023-12-19T16:05:15.857Z,47.04
2023-12-19T16:07:43.463Z,47.11
2023-12-19T16:10:10.757Z,46.74
2023-12-19T16:12:37.767Z,47.06
2023-12-19T16:15:06.396Z,46.90
2023-12-19T16:17:33.309Z,46.75
2023-12-19T16:20:00.143Z,46.60
2023-12-19T16:22:28.241Z,46.38
2023-12-19T16:24:56.629Z,46.48
2023-12-19T16:27:24.412Z,46.29
2023-12-19T16:29:52.255Z,46.49
2023-12-19T16:32:19.382Z,46.53
2023-12-19T16:34:46.572Z,46.36
2023-12-19T16:37:14.366Z,46.57
2023-12-19T16:39:41.242Z,46.48
2023-12-19T16:42:09.933Z,46.65
2023-12-19T16:44:39.653Z,46.51
2023-12-19T16:47:07.011Z,46.40
2023-12-19T16:49:33.825Z,46.41
2023-12-19T16:52:01.628Z,46.51
2023-12-19T16:54:28.755Z,46.39
2023-12-19T16:56:55.685Z,46.18
2023-12-19T16:59:22.887Z,46.22
2023-12-19T17:01:50.242Z,46.15
2023-12-19T17:04:17.374Z,46.09
2023-12-19T17:06:46.118Z,46.12
2023-12-19T17:09:13.225Z,46.19
2023-12-19T17:11:40.214Z,46.20
2023-12-19T17:14:07.657Z,46.29
2023-12-19T17:16:35.200Z,46.25
2023-12-19T17:19:02.353Z,46.05
2023-12-19T17:21:29.432Z,46.10
2023-12-19T17:23:56.383Z,45.97
2023-12-19T17:26:25.792Z,46.11
2023-12-19T17:28:52.958Z,45.99
2023-12-19T17:31:20.358Z,46.00
2023-12-19T17:33:47.489Z,46.15
2023-12-19T17:36:14.604Z,45.87
2023-12-19T17:38:41.547Z,45.76
2023-12-19T17:41:08.549Z,45.81
2023-12-19T17:43:35.788Z,46.03
2023-12-19T17:46:03.201Z,46.31
2023-12-19T17:48:30.210Z,46.01
2023-12-19T17:50:57.739Z,46.12
2023-12-19T17:53:24.816Z,45.73
2023-12-19T17:55:51.822Z,45.96
2023-12-19T17:58:18.987Z,45.90
2023-12-19T18:00:45.865Z,46.13
2023-12-19T18:03:13.052Z,45.91
2023-12-19T18:05:40.422Z,46.12
2023-12-19T18:08:07.518Z,45.86
2023-12-19T18:10:34.224Z,45.98
2023-12-19T18:13:01.380Z,46.11
2023-12-19T18:15:28.342Z,45.94
2023-12-19T18:17:57.669Z,46.08
2023-12-19T18:20:25.174Z,46.11
2023-12-19T18:22:52.797Z,45.84
2023-12-19T18:25:19.905Z,45.83
2023-12-19T18:27:46.979Z,45.85
2023-12-19T18:30:14.583Z,45.78
2023-12-19T18:32:42.687Z,46.14
2023-12-19T18:35:10.792Z,45.93
2023-12-19T18:37:38.551Z,45.90
2023-12-19T18:40:08.414Z,45.78
2023-12-19T18:42:36.277Z,45.61
2023-12-19T18:45:03.558Z,45.63
2023-12-19T18:47:30.284Z,45.58
2023-12-19T18:49:57.410Z,45.72
2023-12-19T18:52:24.661Z,45.60
2023-12-19T18:54:51.633Z,45.30
2023-12-19T18:57:19.006Z,45.56
2023-12-19T18:59:45.901Z,45.64
2023-12-19T19:02:12.952Z,45.84
2023-12-19T19:04:40.096Z,45.86
2023-12-19T19:07:07.274Z,45.64
2023-12-19T19:09:34.366Z,45.59
2023-12-19T19:12:01.715Z,45.96
2023-12-19T19:14:29.468Z,45.88
2023-12-19T19:16:56.517Z,45.93
2023-12-19T19:19:24.360Z,45.98
2023-12-19T19:21:51.329Z,46.08
2023-12-19T19:24:18.844Z,45.93
2023-12-19T19:26:46.068Z,46.01
2023-12-19T19:29:13.000Z,46.15
2023-12-19T19:31:42.085Z,46.26
2023-12-19T19:34:11.084Z,46.11
2023-12-19T19:36:38.604Z,46.27
2023-12-19T19:39:07.940Z,46.43
2023-12-19T19:41:40.331Z,46.38
2023-12-19T19:44:09.587Z,46.69
2023-12-19T19:46:36.854Z,46.49
2023-12-19T19:49:05.489Z,46.71
2023-12-19T19:51:36.348Z,46.58
2023-12-19T19:54:03.749Z,46.50
2023-12-19T19:56:30.692Z,46.58
2023-12-19T19:58:57.655Z,46.83
2023-12-19T20:01:24.798Z,46.80
2023-12-19T20:03:52.261Z,46.80
2023-12-19T20:06:19.341Z,46.93
2023-12-19T20:08:46.282Z,47.15
2023-12-19T20:11:13.455Z,46.91
2023-12-19T20:13:40.263Z,47.20
2023-12-19T20:16:07.662Z,47.15
2023-12-19T20:18:35.655Z,46.91
2023-12-19T20:21:02.765Z,46.93
2023-12-19T20:23:30.435Z,47.15
2023-12-19T20:25:57.529Z,47.25
2023-12-19T20:28:24.819Z,47.31
2023-12-19T20:30:52.926Z,47.27
2023-12-19T20:33:20.577Z,47.26
2023-12-19T20:35:49.975Z,47.31
2023-12-19T20:38:17.108Z,47.56
2023-12-19T20:40:44.866Z,47.42
2023-12-19T20:43:11.885Z,47.47
2023-12-19T20:45:40.356Z,47.16
2023-12-19T20:48:08.029Z,47.41
2023-12-19T20:50:35.090Z,47.40
2023-12-19T20:53:02.482Z,47.42
2023-12-19T20:55:30.171Z,47.41
2023-12-19T20:57:57.010Z,47.58
2023-12-19T21:00:26.518Z,47.59
2023-12-19T21:02:53.807Z,47.65
2023-12-19T21:05:20.822Z,47.62
2023-12-19T21:07:49.579Z,47.63
2023-12-19T21:10:17.506Z,47.64
2023-12-19T21:12:45.056Z,47.60
2023-12-19T21:15:12.842Z,47.76
2023-12-19T21:17:40.353Z,47.68
2023-12-19T21:20:08.300Z,47.72
2023-12-19T21:22:35.483Z,47.52
2023-12-19T21:25:02.752Z,47.49
2023-12-19T21:27:30.468Z,47.79
2023-12-19T21:29:57.513Z,47.72
2023-12-19T21:32:24.666Z,47.66
2023-12-19T21:34:51.877Z,47.68
2023-12-19T21:37:18.800Z,47.84
2023-12-19T21:39:47.044Z,47.89
2023-12-19T21:42:13.813Z,47.50
2023-12-19T21:44:40.902Z,47.74
2023-12-19T21:47:07.784Z,47.39
2023-12-19T21:49:38.637Z,47.73
2023-12-19T21:52:07.404Z,47.53
2023-12-19T21:54:34.887Z,47.63
2023-12-19T21:57:04.958Z,47.57
2023-12-19T21:59:32.113Z,47.65
2023-12-19T22:01:59.763Z,47.59
2023-12-19T22:04:26.731Z,47.56
2023-12-19T22:06:54.019Z,47.07
2023-12-19T22:09:21.121Z,47.11
2023-12-19T22:11:50.345Z,46.97
2023-12-19T22:14:17.135Z,47.25
2023-12-19T22:16:44.122Z,47.21
2023-12-19T22:19:10.978Z,47.03
2023-12-19T22:21:37.964Z,46.98
2023-12-19T22:24:05.231Z,46.87
2023-12-19T22:26:31.957Z,47.02
2023-12-19T22:28:58.704Z,47.24
2023-12-19T22:31:25.993Z,47.15
2023-12-19T22:33:52.832Z,46.98
2023-12-19T22:36:19.638Z,47.03
2023-12-19T22:38:46.549Z,47.07
2023-12-19T22:41:13.345Z,46.93
2023-12-19T22:43:40.167Z,46.89
2023-12-19T22:46:07.095Z,46.80
2023-12-19T22:48:34.005Z,46.88
2023-12-19T22:51:00.855Z,46.59
2023-12-19T22:53:28.081Z,46.92
2023-12-19T22:55:54.929Z,46.58
2023-12-19T22:58:21.760Z,46.59
2023-12-19T23:00:48.704Z,46.50
2023-12-19T23:03:19.524Z,46.43
2023-12-19T23:05:46.639Z,46.51
2023-12-19T23:08:13.845Z,46.48
2023-12-19T23:10:40.837Z,46.63
2023-12-19T23:13:09.247Z,46.68
2023-12-19T23:15:37.124Z,46.32
2023-12-19T23:18:04.927Z,46.28
2023-12-19T23:20:33.656Z,46.50
2023-12-19T23:23:01.300Z,46.28
2023-12-19T23:25:28.132Z,46.21
2023-12-19T23:27:55.360Z,46.16
2023-12-19T23:30:23.006Z,46.37
2023-12-19T23:32:50.393Z,46.11
2023-12-19T23:35:17.366Z,46.29
2023-12-19T23:37:44.983Z,46.38
2023-12-19T23:40:13.088Z,46.18
2023-12-19T23:42:40.229Z,46.25
2023-12-19T23:45:07.680Z,45.92
2023-12-19T23:47:34.905Z,45.88
2023-12-19T23:50:02.698Z,45.70
2023-12-19T23:52:30.335Z,45.59
2023-12-19T23:54:57.238Z,45.62
2023-12-19T23:57:24.182Z,45.57
2023-12-19T23:59:51.457Z,45.51
